Throggs Neck, New York
Current Conditions -  °F | °C
As of 4:51 PM on Wednesday 28 Jan 2015 (Local Time) from KLGA Reporting Station
Clear Clear  
Wind Chill: 24°   Ceiling: Unl
Heat Index: 32°   Visibility: 10mi
Dew Point: 11°   Wind: 9mph
Humidity: 42%   Direction: 350°N
Pressure: 30.13"   Gusts: NA
Location:  40.8263°N, 73.8227°W
Report Text: KLGA 282151Z 35008KT 10SM CLR 00/M12 A3013 RMK AO2 SLP201 T00001117
Loading
Personal Weather Stations






























Interactive Weather Map New forecast layout! Learn more

10-Day Weather Forecast

Advertisements
Track Severe Weather on mobile